Waterbury, Nebraska
Current Conditions -  °F | °C
As of 4:52 AM on Sunday 21 Dec 2014 (Local Time) from KSUX Reporting Station
Moderate Fog Moderate Fog  
Wind Chill: 29°   Ceiling: 200
Heat Index: 35°   Visibility: 0.5mi
Dew Point: 34°   Wind: 8mph
Humidity: 96%   Direction: 140°SE
Pressure: 29.87"   Gusts: NA
Location:  42.46°N, 96.73°W
Report Text: KSUX 211052Z 14007KT 1/2SM R31/2600V3000FT FG VV002 02/01 A2987 RMK AO2 SLP125 T00170011
Loading
Personal Weather Stations






























Interactive Weather Map New forecast layout! Learn more

10-Day Weather Forecast

Advertisements
Track Severe Weather on mobile